Autumn — V7QA6 — position and weather

sailwx.info

Track history (hours):
 
Tides and Currents Weather Stations Pressure Air Temp Water Temp Dewpoint Dewpoint Depression Visibility Wind Speed Wind Dir Waves Ship Positions

Autumn

Last reported at 2017-Oct-21 09:46 UTC. Time now 2017-Oct-22 19:31 UTC.
Position N 37°32' W 000°14'.

Length 129 m; draft 8.2 m.

Type: Tanker. MMSI: 538003323.

Date/timePositionNaut miles runAvg speedWind from/ knotsBaromVisibWave heightAir tempDewpointWater temp
2017-Oct-21 09:46N 37°32' W 000°14'312.6
2017-Oct-21 09:30N 37°32' W 000°18'612.6
2017-Oct-21 09:00N 37°31' W 000°26'612.5
2017-Oct-21 08:30N 37°30' W 000°34'612.4
2017-Oct-21 07:59N 37°30' W 000°42'712.2
2017-Oct-21 07:25N 37°31' W 000°51'612.2
2017-Oct-21 06:56N 37°32' W 000°58'3 0.1
2017-Oct-20 08:57N 37°34' W 001°00'4 8.0
2017-Oct-20 08:28N 37°33' W 001°05'0 0.0
2017-Oct-20 05:08N 37°33' W 001°05'0 0.0
2017-Oct-19 20:14N 37°33' W 001°05'0 0.0
2017-Oct-19 19:44N 37°33' W 001°05'0 0.0
2017-Oct-19 19:20N 37°33' W 001°05'0 0.1
2017-Oct-19 18:38N 37°33' W 001°05'0 0.2
2017-Oct-19 18:26N 37°33' W 001°05'0 0.0
2017-Oct-19 02:02N 37°33' W 001°05'0 0.1
2017-Oct-19 01:50N 37°33' W 001°05'0 0.0
2017-Oct-19 00:38N 37°33' W 001°05'0 0.1
2017-Oct-18 23:20N 37°33' W 001°05'0 0.0
2017-Oct-18 22:56N 37°33' W 001°05'0 0.0
2017-Oct-18 21:26N 37°33' W 001°05'0 0.0
2017-Oct-18 20:56N 37°33' W 001°05'0 0.0
2017-Oct-18 19:02N 37°33' W 001°05'0 0.0
2017-Oct-18 13:32N 37°33' W 001°05'0 0.1
2017-Oct-18 13:26N 37°33' W 001°05'0 0.0
2017-Oct-17 14:32N 37°33' W 001°05'0 0.1
2017-Oct-17 14:26N 37°33' W 001°05'0 0.0
2017-Oct-17 13:56N 37°33' W 001°05'0 0.0
2017-Oct-17 06:20N 37°33' W 001°06'0 0.0
2017-Oct-16 03:44N 37°33' W 001°05'4 6.6
2017-Oct-16 03:04N 37°32' W 000°60'112.8
2017-Oct-16 02:59N 37°32' W 000°59'612.5
2017-Oct-16 02:30N 37°31' W 000°51'612.9
2017-Oct-16 02:00N 37°31' W 000°43'612.9
2017-Oct-16 01:30N 37°33' W 000°35'612.9
2017-Oct-16 01:00N 37°38' W 000°30'713.0
2017-Oct-16 00:30N 37°44' W 000°26'713.1
2017-Oct-16 00:00N 37°49' W 000°21'913.0
2017-Oct-15 23:18N 37°57' W 000°15'18412.3
2017-Oct-15 08:25N 40°05' E 002°34'512.6
2017-Oct-15 08:00N 40°08' E 002°39'1713.0
2017-Oct-15 06:40N 40°18' E 002°58'313.8
2017-Oct-15 06:26N 40°20' E 003°01'12412.8
2017-Oct-14 20:45N 41°30' E 005°16'712.8
2017-Oct-14 20:13N 41°34' E 005°24'412.7
2017-Oct-14 19:56N 41°36' E 005°28'1012.8
2017-Oct-14 19:07N 41°42' E 005°39'3012.5
2017-Oct-14 16:43N 41°60' E 006°12'1212.4
2017-Oct-14 15:47N 42°08' E 006°23'812.3
2017-Oct-14 15:09N 42°14' E 006°30'2212.4
2017-Oct-14 13:22N 42°29' E 006°52'512.7
2017-Oct-14 12:57N 42°33' E 006°57'10412.8
2017-Oct-14 04:50N 43°46' E 008°38'412.9
2017-Oct-14 04:31N 43°49' E 008°42'713.1
2017-Oct-14 04:00N 43°54' E 008°48'612.6
2017-Oct-14 03:31N 43°59' E 008°54'612.8
2017-Oct-14 03:01N 44°05' E 008°52'612.9
2017-Oct-14 02:31N 44°11' E 008°49'713.2
2017-Oct-14 02:01N 44°18' E 008°47'612.4
2017-Oct-14 01:31N 44°24' E 008°47'2 4.2
2017-Oct-14 00:55N 44°25' E 008°50'0 0.0
2017-Oct-14 00:25N 44°25' E 008°50'0 0.0
2017-Oct-13 23:58N 44°25' E 008°50'0 0.0
2017-Oct-13 23:25N 44°25' E 008°50'0 0.0
2017-Oct-13 22:58N 44°25' E 008°50'0 0.0
2017-Oct-13 22:28N 44°25' E 008°50'0 0.0
2017-Oct-13 21:58N 44°25' E 008°50'0 0.0
2017-Oct-13 21:28N 44°25' E 008°50'0 0.0
2017-Oct-13 20:58N 44°25' E 008°50'0 0.0
2017-Oct-13 20:28N 44°25' E 008°50'0 0.0
2017-Oct-13 19:58N 44°25' E 008°50'0 0.0
2017-Oct-13 19:28N 44°25' E 008°50'0 0.0
2017-Oct-13 18:58N 44°25' E 008°50'0 0.0
2017-Oct-13 18:28N 44°25' E 008°50'0 0.0
2017-Oct-13 17:58N 44°25' E 008°50'0 0.0
2017-Oct-13 17:01N 44°25' E 008°50'0 0.0
2017-Oct-13 16:49N 44°25' E 008°50'0 0.0
2017-Oct-13 16:19N 44°25' E 008°50'0 0.0
2017-Oct-13 15:49N 44°25' E 008°50'0 0.0
2017-Oct-13 15:22N 44°25' E 008°50'0 0.0
2017-Oct-13 14:52N 44°25' E 008°50'0 0.0
2017-Oct-13 14:22N 44°25' E 008°50'0 0.0
2017-Oct-13 13:52N 44°25' E 008°50'0 0.0
2017-Oct-13 13:07N 44°25' E 008°50'0 0.0
2017-Oct-13 12:55N 44°25' E 008°50'0 0.0
2017-Oct-13 12:25N 44°25' E 008°50'0 0.0
2017-Oct-13 11:55N 44°25' E 008°50'0 0.0
2017-Oct-13 11:25N 44°25' E 008°50'0 0.0
2017-Oct-13 10:55N 44°25' E 008°50'0 0.0
2017-Oct-13 10:25N 44°25' E 008°50'0 0.0
2017-Oct-13 09:55N 44°25' E 008°50'0 0.0
2017-Oct-13 09:28N 44°25' E 008°50'0 0.0
2017-Oct-13 08:58N 44°25' E 008°50'0 0.0
2017-Oct-13 08:28N 44°25' E 008°50'0 0.0
2017-Oct-13 07:58N 44°25' E 008°50'0 0.0
2017-Oct-13 07:28N 44°25' E 008°50'0 0.5
2017-Oct-13 07:00N 44°25' E 008°50'3 5.4
2017-Oct-13 06:30N 44°23' E 008°47'2 4.6
2017-Oct-13 06:01N 44°21' E 008°47'4 8.1
2017-Oct-13 05:30N 44°23' E 008°52'1 1.3
2017-Oct-13 04:59N 44°24' E 008°52'0 0.0
2017-Oct-13 04:29N 44°24' E 008°52'0 0.0
2017-Oct-13 03:59N 44°24' E 008°52'0 0.0
2017-Oct-13 03:29N 44°24' E 008°52'0 0.0
2017-Oct-13 02:59N 44°24' E 008°52'0 0.0
2017-Oct-13 02:29N 44°24' E 008°52'0 0.0
2017-Oct-13 01:59N 44°24' E 008°52'0 0.0
2017-Oct-13 01:29N 44°24' E 008°52'0 0.0
2017-Oct-13 00:59N 44°24' E 008°52'0 0.0
2017-Oct-13 00:29N 44°24' E 008°52'0 0.0
2017-Oct-12 23:59N 44°24' E 008°52'0 0.0
2017-Oct-12 23:29N 44°24' E 008°52'0 0.0
2017-Oct-12 22:56N 44°24' E 008°52'0 0.0
2017-Oct-12 22:26N 44°24' E 008°52'0 0.0
2017-Oct-12 21:59N 44°24' E 008°52'0 0.0
2017-Oct-12 21:26N 44°24' E 008°52'0 0.0
2017-Oct-12 20:59N 44°24' E 008°52'0 0.0
2017-Oct-12 20:29N 44°24' E 008°52'0 0.0
2017-Oct-12 19:56N 44°24' E 008°52'0 0.1
2017-Oct-12 19:29N 44°24' E 008°52'0 0.1
2017-Oct-12 18:59N 44°24' E 008°52'0 0.0
2017-Oct-12 18:29N 44°24' E 008°52'0 0.0
2017-Oct-12 17:59N 44°24' E 008°52'0 0.1
2017-Oct-12 17:29N 44°24' E 008°52'0 0.0
2017-Oct-12 16:59N 44°24' E 008°52'1 1.3
2017-Oct-12 16:30N 44°23' E 008°51'4 7.4
2017-Oct-12 16:00N 44°21' E 008°48'5 9.5
2017-Oct-12 15:30N 44°16' E 008°48'713.0
2017-Oct-12 15:00N 44°11' E 008°53'713.3
2017-Oct-12 14:30N 44°05' E 008°59'713.4
2017-Oct-12 14:00N 43°60' E 009°05'8712.9
2017-Oct-12 07:17N 42°39' E 009°48'  
Track history (hours):
 
Tides and Currents Weather Stations Pressure Air Temp Water Temp Dewpoint Dewpoint Depression Visibility Wind Speed Wind Dir Waves Ship Positions

Autumn

Last reported at 2017-Oct-21 09:46 UTC. Time now 2017-Oct-22 19:31 UTC.
Position N 37°32' W 000°14'.

Length 129 m; draft 8.2 m.

Type: Tanker. MMSI: 538003323.

Date/timePositionNaut miles runAvg speedWind from/ knotsBaromVisibWave heightAir tempDewpointWater temp
2017-Oct-21 09:46N 37°32' W 000°14'312.6
2017-Oct-21 09:30N 37°32' W 000°18'612.6
2017-Oct-21 09:00N 37°31' W 000°26'612.5
2017-Oct-21 08:30N 37°30' W 000°34'612.4
2017-Oct-21 07:59N 37°30' W 000°42'712.2
2017-Oct-21 07:25N 37°31' W 000°51'612.2
2017-Oct-21 06:56N 37°32' W 000°58'3 0.1
2017-Oct-20 08:57N 37°34' W 001°00'4 8.0
2017-Oct-20 08:28N 37°33' W 001°05'0 0.0
2017-Oct-20 05:08N 37°33' W 001°05'0 0.0
2017-Oct-19 20:14N 37°33' W 001°05'0 0.0
2017-Oct-19 19:44N 37°33' W 001°05'0 0.0
2017-Oct-19 19:20N 37°33' W 001°05'0 0.1
2017-Oct-19 18:38N 37°33' W 001°05'0 0.2
2017-Oct-19 18:26N 37°33' W 001°05'0 0.0
2017-Oct-19 02:02N 37°33' W 001°05'0 0.1
2017-Oct-19 01:50N 37°33' W 001°05'0 0.0
2017-Oct-19 00:38N 37°33' W 001°05'0 0.1
2017-Oct-18 23:20N 37°33' W 001°05'0 0.0
2017-Oct-18 22:56N 37°33' W 001°05'0 0.0
2017-Oct-18 21:26N 37°33' W 001°05'0 0.0
2017-Oct-18 20:56N 37°33' W 001°05'0 0.0
2017-Oct-18 19:02N 37°33' W 001°05'0 0.0
2017-Oct-18 13:32N 37°33' W 001°05'0 0.1
2017-Oct-18 13:26N 37°33' W 001°05'0 0.0
2017-Oct-17 14:32N 37°33' W 001°05'0 0.1
2017-Oct-17 14:26N 37°33' W 001°05'0 0.0
2017-Oct-17 13:56N 37°33' W 001°05'0 0.0
2017-Oct-17 06:20N 37°33' W 001°06'0 0.0
2017-Oct-16 03:44N 37°33' W 001°05'4 6.6
2017-Oct-16 03:04N 37°32' W 000°60'112.8
2017-Oct-16 02:59N 37°32' W 000°59'612.5
2017-Oct-16 02:30N 37°31' W 000°51'612.9
2017-Oct-16 02:00N 37°31' W 000°43'612.9
2017-Oct-16 01:30N 37°33' W 000°35'612.9
2017-Oct-16 01:00N 37°38' W 000°30'713.0
2017-Oct-16 00:30N 37°44' W 000°26'713.1
2017-Oct-16 00:00N 37°49' W 000°21'913.0
2017-Oct-15 23:18N 37°57' W 000°15'18412.3
2017-Oct-15 08:25N 40°05' E 002°34'512.6
2017-Oct-15 08:00N 40°08' E 002°39'1713.0
2017-Oct-15 06:40N 40°18' E 002°58'313.8
2017-Oct-15 06:26N 40°20' E 003°01'12412.8
2017-Oct-14 20:45N 41°30' E 005°16'712.8
2017-Oct-14 20:13N 41°34' E 005°24'412.7
2017-Oct-14 19:56N 41°36' E 005°28'1012.8
2017-Oct-14 19:07N 41°42' E 005°39'3012.5
2017-Oct-14 16:43N 41°60' E 006°12'1212.4
2017-Oct-14 15:47N 42°08' E 006°23'812.3
2017-Oct-14 15:09N 42°14' E 006°30'2212.4
2017-Oct-14 13:22N 42°29' E 006°52'512.7
2017-Oct-14 12:57N 42°33' E 006°57'10412.8
2017-Oct-14 04:50N 43°46' E 008°38'412.9
2017-Oct-14 04:31N 43°49' E 008°42'713.1
2017-Oct-14 04:00N 43°54' E 008°48'612.6
2017-Oct-14 03:31N 43°59' E 008°54'612.8
2017-Oct-14 03:01N 44°05' E 008°52'612.9
2017-Oct-14 02:31N 44°11' E 008°49'713.2
2017-Oct-14 02:01N 44°18' E 008°47'612.4
2017-Oct-14 01:31N 44°24' E 008°47'2 4.2
2017-Oct-14 00:55N 44°25' E 008°50'0 0.0
2017-Oct-14 00:25N 44°25' E 008°50'0 0.0
2017-Oct-13 23:58N 44°25' E 008°50'0 0.0
2017-Oct-13 23:25N 44°25' E 008°50'0 0.0
2017-Oct-13 22:58N 44°25' E 008°50'0 0.0
2017-Oct-13 22:28N 44°25' E 008°50'0 0.0
2017-Oct-13 21:58N 44°25' E 008°50'0 0.0
2017-Oct-13 21:28N 44°25' E 008°50'0 0.0
2017-Oct-13 20:58N 44°25' E 008°50'0 0.0
2017-Oct-13 20:28N 44°25' E 008°50'0 0.0
2017-Oct-13 19:58N 44°25' E 008°50'0 0.0
2017-Oct-13 19:28N 44°25' E 008°50'0 0.0
2017-Oct-13 18:58N 44°25' E 008°50'0 0.0
2017-Oct-13 18:28N 44°25' E 008°50'0 0.0
2017-Oct-13 17:58N 44°25' E 008°50'0 0.0
2017-Oct-13 17:01N 44°25' E 008°50'0 0.0
2017-Oct-13 16:49N 44°25' E 008°50'0 0.0
2017-Oct-13 16:19N 44°25' E 008°50'0 0.0
2017-Oct-13 15:49N 44°25' E 008°50'0 0.0
2017-Oct-13 15:22N 44°25' E 008°50'0 0.0
2017-Oct-13 14:52N 44°25' E 008°50'0 0.0
2017-Oct-13 14:22N 44°25' E 008°50'0 0.0
2017-Oct-13 13:52N 44°25' E 008°50'0 0.0
2017-Oct-13 13:07N 44°25' E 008°50'0 0.0
2017-Oct-13 12:55N 44°25' E 008°50'0 0.0
2017-Oct-13 12:25N 44°25' E 008°50'0 0.0
2017-Oct-13 11:55N 44°25' E 008°50'0 0.0
2017-Oct-13 11:25N 44°25' E 008°50'0 0.0
2017-Oct-13 10:55N 44°25' E 008°50'0 0.0
2017-Oct-13 10:25N 44°25' E 008°50'0 0.0
2017-Oct-13 09:55N 44°25' E 008°50'0 0.0
2017-Oct-13 09:28N 44°25' E 008°50'0 0.0
2017-Oct-13 08:58N 44°25' E 008°50'0 0.0
2017-Oct-13 08:28N 44°25' E 008°50'0 0.0
2017-Oct-13 07:58N 44°25' E 008°50'0 0.0
2017-Oct-13 07:28N 44°25' E 008°50'0 0.5
2017-Oct-13 07:00N 44°25' E 008°50'3 5.4
2017-Oct-13 06:30N 44°23' E 008°47'2 4.6
2017-Oct-13 06:01N 44°21' E 008°47'4 8.1
2017-Oct-13 05:30N 44°23' E 008°52'1 1.3
2017-Oct-13 04:59N 44°24' E 008°52'0 0.0
2017-Oct-13 04:29N 44°24' E 008°52'0 0.0
2017-Oct-13 03:59N 44°24' E 008°52'0 0.0
2017-Oct-13 03:29N 44°24' E 008°52'0 0.0
2017-Oct-13 02:59N 44°24' E 008°52'0 0.0
2017-Oct-13 02:29N 44°24' E 008°52'0 0.0
2017-Oct-13 01:59N 44°24' E 008°52'0 0.0
2017-Oct-13 01:29N 44°24' E 008°52'0 0.0
2017-Oct-13 00:59N 44°24' E 008°52'0 0.0
2017-Oct-13 00:29N 44°24' E 008°52'0 0.0
2017-Oct-12 23:59N 44°24' E 008°52'0 0.0
2017-Oct-12 23:29N 44°24' E 008°52'0 0.0
2017-Oct-12 22:56N 44°24' E 008°52'0 0.0
2017-Oct-12 22:26N 44°24' E 008°52'0 0.0
2017-Oct-12 21:59N 44°24' E 008°52'0 0.0
2017-Oct-12 21:26N 44°24' E 008°52'0 0.0
2017-Oct-12 20:59N 44°24' E 008°52'0 0.0
2017-Oct-12 20:29N 44°24' E 008°52'0 0.0
2017-Oct-12 19:56N 44°24' E 008°52'0 0.1
2017-Oct-12 19:29N 44°24' E 008°52'0 0.1
2017-Oct-12 18:59N 44°24' E 008°52'0 0.0
2017-Oct-12 18:29N 44°24' E 008°52'0 0.0
2017-Oct-12 17:59N 44°24' E 008°52'0 0.1
2017-Oct-12 17:29N 44°24' E 008°52'0 0.0
2017-Oct-12 16:59N 44°24' E 008°52'1 1.3
2017-Oct-12 16:30N 44°23' E 008°51'4 7.4
2017-Oct-12 16:00N 44°21' E 008°48'5 9.5
2017-Oct-12 15:30N 44°16' E 008°48'713.0
2017-Oct-12 15:00N 44°11' E 008°53'713.3
2017-Oct-12 14:30N 44°05' E 008°59'713.4
2017-Oct-12 14:00N 43°60' E 009°05'8712.9
2017-Oct-12 07:17N 42°39' E 009°48'  

Dump ship's entire track history